createdAt,value
2022-08-22T00:00:13.774Z,99960.03
2022-08-22T00:02:49.029Z,99912.81
2022-08-22T00:02:55.670Z,99956.23
2022-08-22T00:02:59.456Z,99960.61
2022-08-22T00:03:01.014Z,99893.96
2022-08-22T00:03:17.310Z,99960.53
2022-08-22T00:06:07.985Z,99958.60
2022-08-22T00:08:50.471Z,99956.30
2022-08-22T00:11:52.029Z,99958.40
2022-08-22T00:14:47.969Z,99955.45
2022-08-22T00:17:30.758Z,99957.92
2022-08-22T00:20:34.246Z,99957.98
2022-08-22T00:23:12.251Z,99960.11
2022-08-22T00:26:06.261Z,99964.95
2022-08-22T00:28:58.818Z,99961.28
2022-08-22T00:31:47.639Z,99967.45
2022-08-22T00:34:29.956Z,99962.57
2022-08-22T00:37:15.138Z,99968.88
2022-08-22T00:40:03.461Z,99972.41
2022-08-22T00:43:08.550Z,99974.56
2022-08-22T00:46:02.114Z,99976.10
2022-08-22T00:48:45.810Z,99975.25
2022-08-22T00:51:45.158Z,99973.66
2022-08-22T00:55:05.812Z,99975.88
2022-08-22T00:57:54.777Z,99978.83
2022-08-22T01:00:26.834Z,99982.26
2022-08-22T01:03:17.138Z,99987.07
2022-08-22T01:06:04.746Z,99989.33
2022-08-22T01:08:51.095Z,99990.18
2022-08-22T01:12:06.726Z,99988.70
2022-08-22T01:15:11.080Z,99989.65
2022-08-22T01:18:06.083Z,99989.54
2022-08-22T01:21:05.502Z,99990.73
2022-08-22T01:23:59.352Z,99988.98
2022-08-22T01:26:36.632Z,99986.48
2022-08-22T01:29:53.272Z,99985.54
2022-08-22T01:32:49.229Z,99992.88
2022-08-22T01:35:27.649Z,99992.91
2022-08-22T01:38:32.607Z,99996.92
2022-08-22T01:41:17.747Z,99997.02
2022-08-22T01:44:08.771Z,99995.80
2022-08-22T01:47:05.064Z,99994.60
2022-08-22T01:49:37.229Z,99992.69
2022-08-22T01:52:34.274Z,99989.39
2022-08-22T01:55:24.616Z,99989.35
2022-08-22T01:58:13.207Z,99985.85
2022-08-22T02:01:08.612Z,99984.89
2022-08-22T02:04:16.975Z,99988.00
2022-08-22T02:07:10.455Z,99989.14
2022-08-22T02:10:04.030Z,99987.73
2022-08-22T02:12:44.802Z,99992.39
2022-08-22T02:15:14.666Z,99997.79
2022-08-22T02:17:54.689Z,99991.39
2022-08-22T02:20:44.427Z,99997.95
2022-08-22T02:23:52.141Z,99994.42
2022-08-22T02:27:05.371Z,100002.27
2022-08-22T02:29:52.111Z,100001.83
2022-08-22T02:32:26.189Z,100003.08
2022-08-22T02:35:11.662Z,100003.50
2022-08-22T02:38:00.041Z,100000.77
2022-08-22T02:40:36.328Z,100006.02
2022-08-22T02:43:22.897Z,100005.08
2022-08-22T02:46:38.233Z,100006.80
2022-08-22T02:49:30.241Z,100006.43
2022-08-22T02:52:24.311Z,100007.59
2022-08-22T02:55:04.173Z,100007.48
2022-08-22T02:57:45.527Z,100011.63
2022-08-22T03:00:31.006Z,100012.33
2022-08-22T03:03:24.986Z,100010.02
2022-08-22T03:06:04.609Z,100015.48
2022-08-22T03:08:42.799Z,100013.73
2022-08-22T03:11:19.234Z,100020.16
2022-08-22T03:14:03.463Z,100017.06
2022-08-22T03:16:41.071Z,100017.17
2022-08-22T03:19:18.713Z,100013.95
2022-08-22T03:21:52.923Z,100015.77
2022-08-22T03:24:25.660Z,100015.92
2022-08-22T03:27:31.358Z,100016.70
2022-08-22T03:30:20.472Z,100014.20
2022-08-22T03:32:59.303Z,100014.32
2022-08-22T03:35:50.145Z,100014.14
2022-08-22T03:38:37.316Z,100013.54
2022-08-22T03:41:32.926Z,100010.89
2022-08-22T03:44:44.458Z,100008.88
2022-08-22T03:47:30.883Z,100011.67
2022-08-22T03:50:09.931Z,100010.77
2022-08-22T03:53:18.483Z,100014.63
2022-08-22T03:56:24.625Z,100012.55
2022-08-22T03:58:53.523Z,100013.50
2022-08-22T04:01:58.992Z,100015.70
2022-08-22T04:04:50.433Z,100021.91
2022-08-22T04:07:56.162Z,100024.34
2022-08-22T04:10:39.629Z,100021.26
2022-08-22T04:13:34.844Z,100024.55
2022-08-22T04:16:41.795Z,100028.52
2022-08-22T04:19:32.583Z,100030.30
2022-08-22T04:22:41.061Z,100030.95
2022-08-22T04:25:23.169Z,100036.99
2022-08-22T04:28:27.839Z,100038.09
2022-08-22T04:31:22.301Z,100033.47
2022-08-22T04:33:54.474Z,100032.92
2022-08-22T04:36:36.175Z,100033.26
2022-08-22T04:39:22.315Z,100036.52
2022-08-22T04:42:10.910Z,100032.45
2022-08-22T04:45:15.545Z,100035.32
2022-08-22T04:47:54.516Z,100036.84
2022-08-22T04:50:29.167Z,100034.52
2022-08-22T04:53:38.977Z,100040.89
2022-08-22T04:56:16.329Z,100044.36
2022-08-22T04:59:09.233Z,100040.77
2022-08-22T05:01:45.971Z,100041.55
2022-08-22T05:04:26.466Z,100038.73
2022-08-22T05:07:03.952Z,100041.67
2022-08-22T05:09:36.096Z,100042.28
2022-08-22T05:12:12.812Z,100044.94
2022-08-22T05:14:47.128Z,100046.77
2022-08-22T05:17:21.140Z,100048.06
2022-08-22T05:19:56.334Z,100052.46
2022-08-22T05:22:30.333Z,100060.02
2022-08-22T05:25:08.517Z,100057.55
2022-08-22T05:27:47.472Z,100057.46
2022-08-22T05:30:22.118Z,100056.88
2022-08-22T05:33:08.268Z,100060.81
2022-08-22T05:35:51.568Z,100059.35
2022-08-22T05:38:25.822Z,100056.77
2022-08-22T05:41:12.098Z,100058.40
2022-08-22T05:43:45.400Z,100060.05
2022-08-22T05:46:31.401Z,100057.96
2022-08-22T05:49:02.939Z,100055.87
2022-08-22T05:51:38.514Z,100056.01
2022-08-22T05:54:15.513Z,100056.95
2022-08-22T05:56:57.272Z,100055.86
2022-08-22T05:59:33.618Z,100055.20
2022-08-22T06:02:25.279Z,100057.09
2022-08-22T06:05:01.617Z,100054.02
2022-08-22T06:07:41.512Z,100054.60
2022-08-22T06:10:41.433Z,100059.35
2022-08-22T06:13:31.813Z,100059.70
2022-08-22T06:16:22.835Z,100058.48
2022-08-22T06:18:52.478Z,100061.80
2022-08-22T06:21:35.413Z,100061.33
2022-08-22T06:24:13.025Z,100064.11
2022-08-22T06:26:48.726Z,100064.15
2022-08-22T06:29:50.453Z,100068.43
2022-08-22T06:32:52.896Z,100065.36
2022-08-22T06:35:55.921Z,100069.02
2022-08-22T06:39:16.241Z,100065.64
2022-08-22T06:41:54.800Z,100071.91
2022-08-22T06:44:31.502Z,100076.55
2022-08-22T06:47:23.116Z,100076.34
2022-08-22T06:49:59.315Z,100078.11
2022-08-22T06:52:32.625Z,100085.48
2022-08-22T06:55:06.690Z,100086.89
2022-08-22T06:57:56.420Z,100086.61
2022-08-22T07:00:26.947Z,100089.42
2022-08-22T07:03:09.891Z,100086.23
2022-08-22T07:05:42.997Z,100086.07
2022-08-22T07:08:20.849Z,100088.13
2022-08-22T07:11:25.590Z,100088.25
2022-08-22T07:14:24.177Z,100086.28
2022-08-22T07:17:01.972Z,100094.04
2022-08-22T07:19:45.134Z,100093.25
2022-08-22T07:22:24.479Z,100091.25
2022-08-22T07:24:59.994Z,100089.42
2022-08-22T07:28:14.544Z,100096.23
2022-08-22T07:30:59.202Z,100097.66
2022-08-22T07:33:47.987Z,100100.67
2022-08-22T07:36:32.028Z,100107.29
2022-08-22T07:39:18.358Z,100102.83
2022-08-22T07:42:06.645Z,100104.77
2022-08-22T07:45:07.632Z,100107.11
2022-08-22T07:48:10.403Z,100108.86
2022-08-22T07:51:17.957Z,100116.28
2022-08-22T07:54:06.999Z,100113.81
2022-08-22T07:56:51.708Z,100113.81
2022-08-22T07:59:23.816Z,100112.25
2022-08-22T08:01:56.488Z,100116.88
2022-08-22T08:04:30.614Z,100115.33
2022-08-22T08:07:03.259Z,100115.83
2022-08-22T08:09:44.817Z,100121.27
2022-08-22T08:12:15.658Z,100120.80
2022-08-22T08:14:46.162Z,100125.41
2022-08-22T08:17:21.616Z,100125.90
2022-08-22T08:19:54.485Z,100125.60
2022-08-22T08:22:26.225Z,100127.19
2022-08-22T08:25:00.344Z,100125.91
2022-08-22T08:27:51.332Z,100124.89
2022-08-22T08:30:35.661Z,100122.71
2022-08-22T08:33:24.278Z,100121.98
2022-08-22T08:36:05.272Z,100122.24
2022-08-22T08:38:48.616Z,100122.37
2022-08-22T08:41:41.231Z,100125.27
2022-08-22T08:44:46.039Z,100124.73
2022-08-22T08:47:25.589Z,100120.45
2022-08-22T08:50:11.331Z,100121.31
2022-08-22T08:53:10.180Z,100124.16
2022-08-22T08:56:06.890Z,100124.73
2022-08-22T08:59:02.341Z,100125.38
2022-08-22T09:01:40.499Z,100120.23
2022-08-22T09:04:29.375Z,100116.26
2022-08-22T09:07:09.024Z,100120.96
2022-08-22T09:10:14.561Z,100119.77
2022-08-22T09:13:12.214Z,100117.63
2022-08-22T09:16:10.119Z,100116.79
2022-08-22T09:19:07.179Z,100117.59
2022-08-22T09:22:15.016Z,100119.89
2022-08-22T09:25:08.580Z,100124.45
2022-08-22T09:27:54.672Z,100121.09
2022-08-22T09:30:48.751Z,100125.45
2022-08-22T09:33:30.135Z,100133.04
2022-08-22T09:36:12.770Z,100131.36
2022-08-22T09:38:59.301Z,100134.73
2022-08-22T09:42:00.139Z,100135.40
2022-08-22T09:45:15.966Z,100138.80
2022-08-22T09:48:02.269Z,100139.89
2022-08-22T09:51:01.666Z,100138.35
2022-08-22T09:53:53.075Z,100137.71
2022-08-22T09:56:26.059Z,100137.63
2022-08-22T09:59:03.292Z,100140.31
2022-08-22T10:01:52.643Z,100144.29
2022-08-22T10:04:44.556Z,100140.45
2022-08-22T10:07:42.839Z,100137.45
2022-08-22T10:10:21.516Z,100136.53
2022-08-22T10:13:17.407Z,100134.81
2022-08-22T10:16:03.819Z,100132.46
2022-08-22T10:19:13.786Z,100133.84
2022-08-22T10:22:14.759Z,100133.13
2022-08-22T10:24:55.096Z,100137.91
2022-08-22T10:27:47.024Z,100137.88
2022-08-22T10:30:30.290Z,100138.34
2022-08-22T10:33:16.494Z,100130.26
2022-08-22T10:35:50.372Z,100130.84
2022-08-22T10:38:26.476Z,100132.60
2022-08-22T10:41:17.899Z,100131.72
2022-08-22T10:43:56.508Z,100133.42
2022-08-22T10:46:38.941Z,100132.95
2022-08-22T10:49:28.736Z,100132.33
2022-08-22T10:52:15.315Z,100133.70
2022-08-22T10:54:51.073Z,100132.64
2022-08-22T10:57:52.086Z,100134.27
2022-08-22T11:00:50.713Z,100134.88
2022-08-22T11:03:40.318Z,100135.30
2022-08-22T11:06:37.197Z,100130.61
2022-08-22T11:09:34.497Z,100128.48
2022-08-22T11:12:37.292Z,100127.52
2022-08-22T11:15:47.306Z,100123.21
2022-08-22T11:18:23.333Z,100119.00
2022-08-22T11:21:37.092Z,100115.14
2022-08-22T11:24:53.971Z,100120.58
2022-08-22T11:27:40.781Z,100118.39
2022-08-22T11:30:29.324Z,100121.89
2022-08-22T11:33:10.605Z,100122.95
2022-08-22T11:35:53.350Z,100120.29
2022-08-22T11:39:01.327Z,100129.59
2022-08-22T11:41:58.051Z,100127.40
2022-08-22T11:45:16.396Z,100127.34
2022-08-22T11:48:02.569Z,100126.37
2022-08-22T11:50:42.188Z,100124.30
2022-08-22T11:53:38.184Z,100125.75
2022-08-22T11:56:34.807Z,100126.80
2022-08-22T11:59:22.550Z,100127.19
2022-08-22T12:01:56.767Z,100124.48
2022-08-22T12:04:53.035Z,100124.58
2022-08-22T12:07:29.817Z,100120.71
2022-08-22T12:10:03.684Z,100114.20
2022-08-22T12:12:37.890Z,100117.48
2022-08-22T12:15:15.862Z,100116.58
2022-08-22T12:18:09.823Z,100110.86
2022-08-22T12:20:56.382Z,100110.97
2022-08-22T12:23:43.157Z,100110.90
2022-08-22T12:26:38.082Z,100112.96
2022-08-22T12:29:34.185Z,100115.04
2022-08-22T12:32:49.148Z,100107.67
2022-08-22T12:35:38.390Z,100111.66
2022-08-22T12:38:36.062Z,100117.42
2022-08-22T12:41:13.569Z,100108.88
2022-08-22T12:44:20.356Z,100112.90
2022-08-22T12:46:58.317Z,100110.27
2022-08-22T12:49:50.049Z,100105.63
2022-08-22T12:52:50.149Z,100102.95
2022-08-22T12:55:56.187Z,100098.20
2022-08-22T12:58:51.125Z,100099.49
2022-08-22T13:01:20.368Z,100100.98
2022-08-22T13:04:02.773Z,100100.96
2022-08-22T13:06:33.638Z,100103.83
2022-08-22T13:09:09.779Z,100106.27
2022-08-22T13:11:43.587Z,100105.58
2022-08-22T13:14:19.544Z,100107.83
2022-08-22T13:17:01.185Z,100109.27
2022-08-22T13:20:14.274Z,100110.98
2022-08-22T13:22:47.243Z,100107.84
2022-08-22T13:25:25.437Z,100108.88
2022-08-22T13:28:03.721Z,100108.22
2022-08-22T13:30:41.118Z,100104.45
2022-08-22T13:33:30.417Z,100101.70
2022-08-22T13:36:10.968Z,100093.84
2022-08-22T13:38:52.036Z,100093.58
2022-08-22T13:41:32.710Z,100100.78
2022-08-22T13:44:06.533Z,100107.95
2022-08-22T13:46:52.767Z,100108.29
2022-08-22T13:49:45.047Z,100107.02
2022-08-22T13:52:38.114Z,100108.61
2022-08-22T13:55:19.424Z,100108.25
2022-08-22T13:58:11.134Z,100108.52
2022-08-22T14:01:06.527Z,100102.81
2022-08-22T14:03:45.925Z,100096.45
2022-08-22T14:06:41.408Z,100093.02
2022-08-22T14:09:54.275Z,100091.77
2022-08-22T14:12:33.427Z,100092.02
2022-08-22T14:15:24.735Z,100092.02
2022-08-22T14:18:30.121Z,100089.86
2022-08-22T14:21:40.908Z,100085.17
2022-08-22T14:24:25.898Z,100083.43
2022-08-22T14:27:05.118Z,100077.09
2022-08-22T14:30:12.161Z,100078.27
2022-08-22T14:33:13.398Z,100081.16
2022-08-22T14:35:51.313Z,100078.45
2022-08-22T14:38:34.813Z,100080.67
2022-08-22T14:41:07.321Z,100082.59
2022-08-22T14:43:56.770Z,100083.11
2022-08-22T14:46:35.029Z,100086.81
2022-08-22T14:49:44.652Z,100079.61
2022-08-22T14:52:25.671Z,100085.67
2022-08-22T14:55:15.555Z,100085.95
2022-08-22T14:57:51.336Z,100082.00
2022-08-22T15:00:49.982Z,100083.52
2022-08-22T15:03:34.641Z,100084.16
2022-08-22T15:06:07.874Z,100080.88
2022-08-22T15:08:42.216Z,100078.67
2022-08-22T15:11:34.865Z,100080.77
2022-08-22T15:14:25.515Z,100084.71
2022-08-22T15:17:05.527Z,100086.27
2022-08-22T15:19:35.124Z,100082.63
2022-08-22T15:22:25.724Z,100086.16
2022-08-22T15:25:18.258Z,100079.11
2022-08-22T15:27:53.397Z,100079.05
2022-08-22T15:30:36.097Z,100079.44
2022-08-22T15:33:30.465Z,100079.27
2022-08-22T15:36:15.719Z,100074.86
2022-08-22T15:38:48.200Z,100072.02
2022-08-22T15:41:24.796Z,100071.10
2022-08-22T15:44:33.098Z,100068.38
2022-08-22T15:47:31.483Z,100066.86
2022-08-22T15:50:09.871Z,100057.33
2022-08-22T15:53:11.308Z,100051.02
2022-08-22T15:56:12.940Z,100048.63
2022-08-22T15:58:49.549Z,100049.02
2022-08-22T16:01:43.571Z,100045.27
2022-08-22T16:04:38.609Z,100048.25
2022-08-22T16:07:27.818Z,100048.11
2022-08-22T16:10:37.796Z,100050.40
2022-08-22T16:13:33.839Z,100050.92
2022-08-22T16:16:08.301Z,100050.99
2022-08-22T16:18:43.252Z,100052.98
2022-08-22T16:21:23.230Z,100055.36
2022-08-22T16:23:54.159Z,100052.27
2022-08-22T16:26:29.810Z,100051.64
2022-08-22T16:29:07.031Z,100053.30
2022-08-22T16:31:42.537Z,100051.14
2022-08-22T16:34:19.669Z,100055.20
2022-08-22T16:36:56.621Z,100052.91
2022-08-22T16:39:24.539Z,100058.67
2022-08-22T16:42:12.977Z,100061.64
2022-08-22T16:45:05.714Z,100061.83
2022-08-22T16:47:35.953Z,100055.83
2022-08-22T16:50:15.930Z,100058.12
2022-08-22T16:53:10.365Z,100059.19
2022-08-22T16:55:49.867Z,100059.59
2022-08-22T16:58:56.195Z,100064.36
2022-08-22T17:02:08.103Z,100069.94
2022-08-22T17:04:44.330Z,100074.02
2022-08-22T17:07:53.301Z,100071.34
2022-08-22T17:10:42.176Z,100082.06
2022-08-22T17:13:29.961Z,100093.23
2022-08-22T17:16:31.801Z,100099.30
2022-08-22T17:19:23.391Z,100102.25
2022-08-22T17:21:59.660Z,100103.08
2022-08-22T17:24:40.865Z,100106.61
2022-08-22T17:27:21.359Z,100109.01
2022-08-22T17:30:28.573Z,100117.60
2022-08-22T17:33:11.388Z,100118.05
2022-08-22T17:36:26.344Z,100117.39
2022-08-22T17:39:23.145Z,100116.72
2022-08-22T17:42:10.023Z,100114.77
2022-08-22T17:45:14.085Z,100112.45
2022-08-22T17:47:51.626Z,100119.02
2022-08-22T17:50:38.965Z,100116.94
2022-08-22T17:53:26.747Z,100116.89
2022-08-22T17:55:54.954Z,100113.34
2022-08-22T17:58:43.341Z,100114.08
2022-08-22T18:01:36.925Z,100116.40
2022-08-22T18:04:08.129Z,100116.75
2022-08-22T18:06:47.477Z,100117.25
2022-08-22T18:09:39.867Z,100118.30
2022-08-22T18:12:34.321Z,100122.64
2022-08-22T18:15:14.210Z,100121.48
2022-08-22T18:18:00.264Z,100123.13
2022-08-22T18:20:46.495Z,100127.33
2022-08-22T18:23:35.710Z,100133.25
2022-08-22T18:26:18.627Z,100136.66
2022-08-22T18:29:15.993Z,100140.71
2022-08-22T18:32:36.012Z,100136.08
2022-08-22T18:38:39.887Z,100146.33
2022-08-22T18:41:51.886Z,100150.40
2022-08-22T18:44:34.674Z,100150.52
2022-08-22T18:47:40.419Z,100141.73
2022-08-22T18:50:33.966Z,100139.52
2022-08-22T18:53:03.055Z,100138.95
2022-08-22T18:55:58.587Z,100140.59
2022-08-22T18:58:37.920Z,100143.64
2022-08-22T19:01:24.526Z,100145.14
2022-08-22T19:04:21.889Z,100146.83
2022-08-22T19:07:12.707Z,100148.29
2022-08-22T19:10:07.926Z,100148.36
2022-08-22T19:13:04.912Z,100147.58
2022-08-22T19:16:02.339Z,100146.36
2022-08-22T19:19:04.916Z,100146.94
2022-08-22T19:22:09.040Z,100148.66
2022-08-22T19:31:42.871Z,100156.09
2022-08-22T19:38:55.441Z,100164.27
2022-08-22T19:41:57.655Z,100166.27
2022-08-22T19:44:26.462Z,100164.08
2022-08-22T19:47:31.925Z,100161.27
2022-08-22T19:50:05.489Z,100158.59
2022-08-22T19:53:11.077Z,100157.95
2022-08-22T19:55:40.116Z,100157.14
2022-08-22T19:58:31.016Z,100156.94
2022-08-22T20:01:09.793Z,100164.60
2022-08-22T20:03:43.767Z,100164.34
2022-08-22T20:06:43.907Z,100162.77
2022-08-22T20:09:59.333Z,100158.88
2022-08-22T20:13:05.733Z,100151.70
2022-08-22T20:16:15.420Z,100151.80
2022-08-22T20:19:18.951Z,100145.46
2022-08-22T20:21:54.583Z,100147.11
2022-08-22T20:24:39.560Z,100145.60
2022-08-22T20:27:35.974Z,100152.02
2022-08-22T20:30:58.257Z,100145.88
2022-08-22T20:33:57.818Z,100141.85
2022-08-22T20:36:39.412Z,100140.38
2022-08-22T20:39:25.276Z,100140.41
2022-08-22T20:42:04.949Z,100138.58
2022-08-22T20:44:40.808Z,100139.24
2022-08-22T20:47:25.927Z,100137.63
2022-08-22T20:50:07.448Z,100137.80
2022-08-22T20:52:54.435Z,100144.34
2022-08-22T20:55:32.085Z,100141.60
2022-08-22T20:58:20.737Z,100143.45
2022-08-22T21:01:15.363Z,100140.12
2022-08-22T21:04:33.031Z,100137.10
2022-08-22T21:07:26.934Z,100135.34
2022-08-22T21:10:42.040Z,100132.72
2022-08-22T21:13:42.608Z,100128.92
2022-08-22T21:16:35.146Z,100127.21
2022-08-22T21:19:48.954Z,100119.68
2022-08-22T21:22:38.892Z,100120.36
2022-08-22T21:25:27.369Z,100119.95
2022-08-22T21:28:20.241Z,100120.38
2022-08-22T21:31:20.500Z,100112.91
2022-08-22T21:34:11.636Z,100112.13
2022-08-22T21:36:59.038Z,100111.63
2022-08-22T21:39:54.079Z,100105.46
2022-08-22T21:43:03.009Z,100108.27
2022-08-22T21:45:55.317Z,100106.40
2022-08-22T21:48:48.309Z,100102.81
2022-08-22T21:51:46.666Z,100104.36
2022-08-22T21:54:43.775Z,100100.00
2022-08-22T21:57:36.436Z,100098.11
2022-08-22T22:00:33.064Z,100094.15
2022-08-22T22:03:12.708Z,100095.29
2022-08-22T22:06:09.047Z,100093.41
2022-08-22T22:08:49.543Z,100096.13
2022-08-22T22:12:47.669Z,100097.91
2022-08-22T22:18:02.214Z,100093.71
2022-08-22T22:21:58.748Z,100095.18
2022-08-22T22:25:55.422Z,100095.59
2022-08-22T22:29:11.228Z,100095.85
2022-08-22T22:31:49.431Z,100087.21
2022-08-22T22:34:22.187Z,100086.39
2022-08-22T22:37:18.309Z,100087.50
2022-08-22T22:40:09.746Z,100087.45
2022-08-22T22:42:49.788Z,100089.98
2022-08-22T22:45:32.778Z,100089.92
2022-08-22T22:48:24.542Z,100086.10
2022-08-22T22:51:06.587Z,100080.63
2022-08-22T22:53:47.147Z,100091.65
2022-08-22T22:56:29.811Z,100090.44
2022-08-22T22:59:30.323Z,100088.16
2022-08-22T23:02:23.843Z,100081.75
2022-08-22T23:05:05.447Z,100084.23
2022-08-22T23:08:06.939Z,100079.61
2022-08-22T23:10:54.101Z,100074.31
2022-08-22T23:13:49.059Z,100075.47
2022-08-22T23:16:48.760Z,100077.33
2022-08-22T23:19:38.600Z,100079.55
2022-08-22T23:22:44.858Z,100078.20
2022-08-22T23:25:32.355Z,100080.99
2022-08-22T23:28:18.787Z,100079.95
2022-08-22T23:30:57.390Z,100079.39
2022-08-22T23:33:57.077Z,100074.72
2022-08-22T23:36:47.262Z,100071.45
2022-08-22T23:39:41.466Z,100068.80
2022-08-22T23:42:30.075Z,100072.30
2022-08-22T23:45:10.672Z,100071.46
2022-08-22T23:48:03.104Z,100075.06
2022-08-22T23:51:00.429Z,100067.13
2022-08-22T23:53:43.307Z,100070.88
2022-08-22T23:56:38.314Z,100069.17
2022-08-22T23:59:30.842Z,100066.70
